sensor_id;sensor_type;location;lat;lon;timestamp;P1;P2;P0
47709;PMS7003;33473;51.640;5.892;2023-06-04T09:20:54;0.01;1.54;
47709;PMS7003;33473;51.640;5.892;2023-06-04T09:34:14;0.01;1.21;
47709;PMS7003;33473;51.640;5.892;2023-06-04T09:47:33;0.01;1.32;
47709;PMS7003;33473;51.640;5.892;2023-06-04T10:00:53;0.01;1.32;1.21
47709;PMS7003;33473;51.640;5.892;2023-06-04T10:14:13;0.01;1.32;
47709;PMS7003;33473;51.640;5.892;2023-06-04T10:27:32;0.01;1.43;1.21
47709;PMS7003;33473;51.640;5.892;2023-06-04T10:40:52;0.01;1.54;
47709;PMS7003;33473;51.640;5.892;2023-06-04T10:54:12;0.01;1.54;1.21
47709;PMS7003;33473;51.640;5.892;2023-06-04T11:07:31;0.01;1.75;1.21
47709;PMS7003;33473;51.640;5.892;2023-06-04T11:20:51;0.01;1.64;1.21
47709;PMS7003;33473;51.640;5.892;2023-06-04T11:34:11;0.01;1.54;1.21
47709;PMS7003;33473;51.640;5.892;2023-06-04T11:47:30;0.01;1.54;
47709;PMS7003;33473;51.640;5.892;2023-06-04T12:00:50;0.01;1.54;
47709;PMS7003;33473;51.640;5.892;2023-06-04T12:14:10;0.01;1.21;
47709;PMS7003;33473;51.640;5.892;2023-06-04T12:27:29;0.01;1.54;
47709;PMS7003;33473;51.640;5.892;2023-06-04T12:40:49;0.01;1.21;
47709;PMS7003;33473;51.640;5.892;2023-06-04T12:54:09;0.01;1.43;
47709;PMS7003;33473;51.640;5.892;2023-06-04T13:07:28;0.01;1.64;1.21
47709;PMS7003;33473;51.640;5.892;2023-06-04T13:20:48;0.01;1.64;1.21
47709;PMS7003;33473;51.640;5.892;2023-06-04T13:34:08;0.01;1.64;1.21
47709;PMS7003;33473;51.640;5.892;2023-06-04T13:47:27;0.01;1.75;1.43
47709;PMS7003;33473;51.640;5.892;2023-06-04T14:00:47;0.01;1.54;1.43
47709;PMS7003;33473;51.640;5.892;2023-06-04T14:14:07;0.01;1.75;1.32
47709;PMS7003;33473;51.640;5.892;2023-06-04T14:27:27;0.01;1.54;1.32
47709;PMS7003;33473;51.640;5.892;2023-06-04T14:40:46;0.01;1.86;1.32
47709;PMS7003;33473;51.640;5.892;2023-06-04T14:54:06;0.01;1.86;1.54
47709;PMS7003;33473;51.640;5.892;2023-06-04T15:07:26;0.01;1.86;1.43
47709;PMS7003;33473;51.640;5.892;2023-06-04T15:20:45;0.01;2.41;1.64
47709;PMS7003;33473;51.640;5.892;2023-06-04T15:34:05;0.01;1.86;1.43
47709;PMS7003;33473;51.640;5.892;2023-06-04T15:47:25;0.01;2.08;1.54
47709;PMS7003;33473;51.640;5.892;2023-06-04T16:00:44;0.01;1.75;1.43
47709;PMS7003;33473;51.640;5.892;2023-06-04T16:14:04;0.01;2.19;1.75
47709;PMS7003;33473;51.640;5.892;2023-06-04T16:27:24;0.24;1.75;1.64
47709;PMS7003;33473;51.640;5.892;2023-06-04T16:40:44;0.01;2.19;1.64
47709;PMS7003;33473;51.640;5.892;2023-06-04T16:54:03;0.01;1.64;1.54
47709;PMS7003;33473;51.640;5.892;2023-06-04T17:07:23;0.01;2.19;1.64
47709;PMS7003;33473;51.640;5.892;2023-06-04T17:20:43;0.01;2.08;1.43
47709;PMS7003;33473;51.640;5.892;2023-06-04T17:34:02;0.01;2.08;1.64
47709;PMS7003;33473;51.640;5.892;2023-06-04T17:47:22;0.01;1.97;1.43
47709;PMS7003;33473;51.640;5.892;2023-06-04T18:00:42;0.01;2.08;1.64
47709;PMS7003;33473;51.640;5.892;2023-06-04T18:14:01;0.01;1.86;1.54
47709;PMS7003;33473;51.640;5.892;2023-06-04T18:27:21;0.01;1.97;1.54
47709;PMS7003;33473;51.640;5.892;2023-06-04T18:40:41;0.01;1.97;1.64
47709;PMS7003;33473;51.640;5.892;2023-06-04T18:54:01;0.01;2.19;1.75
47709;PMS7003;33473;51.640;5.892;2023-06-04T19:07:20;0.01;2.62;1.97
47709;PMS7003;33473;51.640;5.892;2023-06-04T19:20:40;0.01;2.41;1.86
47709;PMS7003;33473;51.640;5.892;2023-06-04T19:34:00;0.01;2.52;1.75
47709;PMS7003;33473;51.640;5.892;2023-06-04T19:47:19;0.01;2.3;1.75
47709;PMS7003;33473;51.640;5.892;2023-06-04T20:00:39;0.01;2.41;1.86
47709;PMS7003;33473;51.640;5.892;2023-06-04T20:13:59;0.12;2.52;1.75
47709;PMS7003;33473;51.640;5.892;2023-06-04T20:27:18;0.84;2.84;2.08
47709;PMS7003;33473;51.640;5.892;2023-06-04T20:40:38;0.01;2.62;1.97
47709;PMS7003;33473;51.640;5.892;2023-06-04T20:53:58;0.01;2.95;2.08
47709;PMS7003;33473;51.640;5.892;2023-06-04T21:07:17;0.01;2.62;1.97
47709;PMS7003;33473;51.640;5.892;2023-06-04T21:20:37;0.84;3.06;2.08
47709;PMS7003;33473;51.640;5.892;2023-06-04T21:33:57;0.6;2.62;2.08
47709;PMS7003;33473;51.640;5.892;2023-06-04T21:47:16;0.01;2.84;2.19
47709;PMS7003;33473;51.640;5.892;2023-06-04T22:00:36;0.01;2.95;2.19
47709;PMS7003;33473;51.640;5.892;2023-06-04T22:13:56;1.2;3.28;2.52
47709;PMS7003;33473;51.640;5.892;2023-06-04T22:27:15;0.01;3.17;2.52
47709;PMS7003;33473;51.640;5.892;2023-06-04T22:40:35;0.84;3.61;2.52
47709;PMS7003;33473;51.640;5.892;2023-06-04T22:53:55;0.12;3.39;2.52
47709;PMS7003;33473;51.640;5.892;2023-06-04T23:07:14;1.44;3.71;2.84
47709;PMS7003;33473;51.640;5.892;2023-06-04T23:20:34;0.36;3.61;2.73
47709;PMS7003;33473;51.640;5.892;2023-06-04T23:33:54;2.04;4.15;2.95
47709;PMS7003;33473;51.640;5.892;2023-06-04T23:47:13;1.68;4.59;3.39
